createdAt,value
2022-11-23T00:00:16.007Z,976.73
2022-11-23T00:01:15.993Z,976.69
2022-11-23T00:02:16.134Z,976.74
2022-11-23T00:03:15.970Z,976.75
2022-11-23T00:04:15.961Z,976.71
2022-11-23T00:05:15.953Z,976.66
2022-11-23T00:06:15.976Z,976.70
2022-11-23T00:07:15.986Z,976.67
2022-11-23T00:08:15.936Z,976.64
2022-11-23T00:09:15.889Z,976.67
2022-11-23T00:10:15.877Z,976.66
2022-11-23T00:11:15.914Z,976.65
2022-11-23T00:12:15.878Z,976.60
2022-11-23T00:13:15.853Z,976.64
2022-11-23T00:14:15.840Z,976.62
2022-11-23T00:15:15.837Z,976.60
2022-11-23T00:16:15.838Z,976.64
2022-11-23T00:18:21.135Z,976.60
2022-11-23T00:18:26.047Z,976.58
2022-11-23T00:19:26.051Z,976.62
2022-11-23T00:20:27.453Z,976.58
2022-11-23T00:21:26.047Z,976.61
2022-11-23T00:22:26.034Z,976.61
2022-11-23T00:23:25.996Z,976.59
2022-11-23T00:24:25.989Z,976.63
2022-11-23T00:25:25.972Z,976.63
2022-11-23T00:26:26.002Z,976.59
2022-11-23T00:27:25.952Z,976.61
2022-11-23T00:28:25.946Z,976.60
2022-11-23T00:29:25.933Z,976.65
2022-11-23T00:30:25.922Z,976.65
2022-11-23T00:31:25.911Z,976.59
2022-11-23T00:32:25.936Z,976.66
2022-11-23T00:33:25.908Z,976.67
2022-11-23T00:34:25.890Z,976.67
2022-11-23T00:35:25.863Z,976.65
2022-11-23T00:36:25.861Z,976.71
2022-11-23T00:37:25.910Z,976.70
2022-11-23T00:38:25.844Z,976.64
2022-11-23T00:39:25.822Z,976.67
2022-11-23T00:40:25.799Z,976.66
2022-11-23T00:41:25.801Z,976.68
2022-11-23T00:42:25.785Z,976.71
2022-11-23T00:43:25.831Z,976.68
2022-11-23T00:44:25.765Z,976.69
2022-11-23T00:45:25.766Z,976.78
2022-11-23T00:46:25.810Z,976.70
2022-11-23T00:47:25.742Z,976.79
2022-11-23T00:48:25.747Z,976.79
2022-11-23T00:49:25.956Z,976.72
2022-11-23T00:50:25.704Z,976.76
2022-11-23T00:51:25.683Z,976.82
2022-11-23T00:52:25.706Z,976.76
2022-11-23T00:53:25.713Z,976.73
2022-11-23T00:54:25.699Z,976.78
2022-11-23T00:55:25.662Z,976.80
2022-11-23T00:56:25.688Z,976.75
2022-11-23T00:57:25.638Z,976.75
2022-11-23T00:58:25.633Z,976.67
2022-11-23T00:59:25.639Z,976.75
2022-11-23T01:00:25.589Z,976.76
2022-11-23T01:01:25.721Z,976.79
2022-11-23T01:02:25.585Z,976.77
2022-11-23T01:03:25.576Z,976.79
2022-11-23T01:04:25.571Z,976.78
2022-11-23T01:05:25.545Z,976.77
2022-11-23T01:06:25.533Z,976.80
2022-11-23T01:07:25.578Z,976.77
2022-11-23T01:08:25.506Z,976.80
2022-11-23T01:09:25.495Z,976.65
2022-11-23T01:10:25.478Z,976.67
2022-11-23T01:11:25.475Z,976.71
2022-11-23T01:12:25.518Z,976.70
2022-11-23T01:13:25.443Z,976.73
2022-11-23T01:14:25.469Z,976.73
2022-11-23T01:15:25.432Z,976.63
2022-11-23T01:16:25.398Z,976.73
2022-11-23T01:17:25.385Z,976.75
2022-11-23T01:18:25.387Z,976.75
2022-11-23T01:19:25.401Z,976.70
2022-11-23T01:20:25.428Z,976.78
2022-11-23T01:21:26.480Z,976.72
2022-11-23T01:22:25.344Z,976.72
2022-11-23T01:23:25.337Z,976.74
2022-11-23T01:24:25.338Z,976.70
2022-11-23T01:25:25.306Z,976.68
2022-11-23T01:26:25.310Z,976.69
2022-11-23T01:27:25.293Z,976.69
2022-11-23T01:28:25.298Z,976.66
2022-11-23T01:29:25.297Z,976.64
2022-11-23T01:30:25.265Z,976.63
2022-11-23T01:31:25.244Z,976.63
2022-11-23T01:32:25.235Z,976.66
2022-11-23T01:33:25.225Z,976.63
2022-11-23T01:34:25.247Z,976.68
2022-11-23T01:35:25.278Z,976.70
2022-11-23T01:36:25.216Z,976.69
2022-11-23T01:37:25.177Z,976.71
2022-11-23T01:38:25.175Z,976.72
2022-11-23T01:39:25.180Z,976.76
2022-11-23T01:40:25.168Z,976.74
2022-11-23T01:41:25.891Z,976.75
2022-11-23T01:42:25.130Z,976.72
2022-11-23T01:43:25.118Z,976.80
2022-11-23T01:44:25.116Z,976.74
2022-11-23T01:45:25.098Z,976.84
2022-11-23T01:46:25.081Z,976.81
2022-11-23T01:47:25.073Z,976.79
2022-11-23T01:48:25.058Z,976.78
2022-11-23T01:49:25.077Z,976.77
2022-11-23T01:50:25.066Z,976.79
2022-11-23T01:51:27.240Z,976.80
2022-11-23T01:52:25.015Z,976.77
2022-11-23T01:53:25.012Z,976.74
2022-11-23T01:54:24.992Z,976.75
2022-11-23T01:55:25.016Z,976.72
2022-11-23T01:56:25.002Z,976.76
2022-11-23T01:57:24.956Z,976.74
2022-11-23T01:58:24.952Z,976.73
2022-11-23T01:59:24.967Z,976.74
2022-11-23T02:00:24.932Z,976.72
2022-11-23T02:01:24.988Z,976.75
2022-11-23T02:02:24.897Z,976.73
2022-11-23T02:03:24.897Z,976.69
2022-11-23T02:04:24.900Z,976.71
2022-11-23T02:05:24.929Z,976.74
2022-11-23T02:06:24.861Z,976.75
2022-11-23T02:07:25.416Z,976.71
2022-11-23T02:08:24.849Z,976.73
2022-11-23T02:09:24.823Z,976.73
2022-11-23T02:10:24.826Z,976.74
2022-11-23T02:11:24.830Z,976.74
2022-11-23T02:12:24.781Z,976.78
2022-11-23T02:13:24.776Z,976.81
2022-11-23T02:14:24.776Z,976.76
2022-11-23T02:15:24.762Z,976.77
2022-11-23T02:16:24.772Z,976.76
2022-11-23T02:17:24.732Z,976.74
2022-11-23T02:18:24.744Z,976.73
2022-11-23T02:19:24.723Z,976.77
2022-11-23T02:20:24.709Z,976.82
2022-11-23T02:21:26.112Z,976.79
2022-11-23T02:22:24.676Z,976.76
2022-11-23T02:23:24.732Z,976.74
2022-11-23T02:24:24.668Z,976.73
2022-11-23T02:25:24.644Z,976.75
2022-11-23T02:26:24.631Z,976.74
2022-11-23T02:27:24.632Z,976.77
2022-11-23T02:28:24.625Z,976.69
2022-11-23T02:29:24.628Z,976.63
2022-11-23T02:30:25.563Z,976.69
2022-11-23T02:31:24.581Z,976.66
2022-11-23T02:32:24.582Z,976.68
2022-11-23T02:33:24.566Z,976.65
2022-11-23T02:34:24.575Z,976.64
2022-11-23T02:35:24.537Z,976.60
2022-11-23T02:36:24.530Z,976.69
2022-11-23T02:37:24.530Z,976.62
2022-11-23T02:38:24.522Z,976.65
2022-11-23T02:39:24.528Z,976.63
2022-11-23T02:40:24.509Z,976.58
2022-11-23T02:41:24.490Z,976.59
2022-11-23T02:42:24.478Z,976.60
2022-11-23T02:43:24.451Z,976.69
2022-11-23T02:46:06.129Z,976.66
2022-11-23T02:47:07.172Z,976.68
2022-11-23T02:48:07.082Z,976.67
2022-11-23T02:49:07.099Z,976.65
2022-11-23T02:50:07.069Z,976.65
2022-11-23T02:51:07.068Z,976.65
2022-11-23T02:52:07.021Z,976.67
2022-11-23T02:53:07.005Z,976.64
2022-11-23T02:54:06.999Z,976.62
2022-11-23T02:55:06.978Z,976.64
2022-11-23T02:56:07.013Z,976.72
2022-11-23T02:57:06.956Z,976.68
2022-11-23T02:58:06.943Z,976.68
2022-11-23T02:59:06.972Z,976.67
2022-11-23T03:00:06.926Z,976.65
2022-11-23T03:01:06.964Z,976.64
2022-11-23T03:02:06.926Z,976.67
2022-11-23T03:03:06.896Z,976.65
2022-11-23T03:04:06.886Z,976.72
2022-11-23T03:05:06.880Z,976.69
2022-11-23T03:06:06.877Z,976.71
2022-11-23T03:07:06.971Z,976.71
2022-11-23T03:08:06.846Z,976.69
2022-11-23T03:09:06.846Z,976.68
2022-11-23T03:10:06.817Z,976.69
2022-11-23T03:11:06.830Z,976.69
2022-11-23T03:12:06.791Z,976.71
2022-11-23T03:13:06.780Z,976.70
2022-11-23T03:14:06.790Z,976.67
2022-11-23T03:15:06.793Z,976.67
2022-11-23T03:16:06.832Z,976.66
2022-11-23T03:17:06.750Z,976.63
2022-11-23T03:18:06.764Z,976.69
2022-11-23T03:19:06.728Z,976.64
2022-11-23T03:20:06.739Z,976.72
2022-11-23T03:21:06.697Z,976.68
2022-11-23T03:22:06.728Z,976.74
2022-11-23T03:23:06.680Z,976.66
2022-11-23T03:24:06.667Z,976.65
2022-11-23T03:25:06.667Z,976.70
2022-11-23T03:26:12.533Z,976.65
2022-11-23T03:27:06.670Z,976.63
2022-11-23T03:28:06.628Z,976.66
2022-11-23T03:29:06.652Z,976.62
2022-11-23T03:30:06.609Z,976.61
2022-11-23T03:31:06.608Z,976.56
2022-11-23T03:32:06.605Z,976.63
2022-11-23T03:33:06.596Z,976.62
2022-11-23T03:34:06.571Z,976.63
2022-11-23T03:35:06.550Z,976.64
2022-11-23T03:36:06.533Z,976.61
2022-11-23T03:37:06.542Z,976.65
2022-11-23T03:38:06.524Z,976.67
2022-11-23T03:39:06.527Z,976.62
2022-11-23T03:40:06.504Z,976.66
2022-11-23T03:41:06.490Z,976.62
2022-11-23T03:42:06.535Z,976.66
2022-11-23T03:43:06.485Z,976.68
2022-11-23T03:44:06.461Z,976.62
2022-11-23T03:45:06.451Z,976.63
2022-11-23T03:46:06.441Z,976.67
2022-11-23T03:47:06.426Z,976.70
2022-11-23T03:48:06.425Z,976.67
2022-11-23T03:49:06.403Z,976.65
2022-11-23T03:50:06.382Z,976.65
2022-11-23T03:51:06.364Z,976.64
2022-11-23T03:52:06.372Z,976.69
2022-11-23T03:53:06.407Z,976.70
2022-11-23T03:54:06.343Z,976.69
2022-11-23T03:55:06.327Z,976.75
2022-11-23T03:56:06.324Z,976.73
2022-11-23T03:57:06.318Z,976.68
2022-11-23T03:58:06.299Z,976.69
2022-11-23T03:59:06.349Z,976.73
2022-11-23T04:00:06.283Z,976.72
2022-11-23T04:01:06.323Z,976.70
2022-11-23T04:02:06.280Z,976.68
2022-11-23T04:03:06.256Z,976.71
2022-11-23T04:04:06.231Z,976.68
2022-11-23T04:05:06.235Z,976.67
2022-11-23T04:06:06.217Z,976.66
2022-11-23T04:07:06.276Z,976.70
2022-11-23T04:08:06.182Z,976.70
2022-11-23T04:09:06.205Z,976.70
2022-11-23T04:10:06.209Z,976.75
2022-11-23T04:11:06.179Z,976.78
2022-11-23T04:12:06.150Z,976.71
2022-11-23T04:13:06.144Z,976.72
2022-11-23T04:14:06.136Z,976.73
2022-11-23T04:15:06.128Z,976.75
2022-11-23T04:16:06.100Z,976.72
2022-11-23T04:17:06.114Z,976.78
2022-11-23T04:18:06.081Z,976.77
2022-11-23T04:19:06.075Z,976.74
2022-11-23T04:20:06.069Z,976.70
2022-11-23T04:21:06.068Z,976.68
2022-11-23T04:22:06.057Z,976.70
2022-11-23T04:23:10.390Z,976.66
2022-11-23T04:24:06.018Z,976.68
2022-11-23T04:25:06.045Z,976.66
2022-11-23T04:26:06.001Z,976.66
2022-11-23T04:27:05.982Z,976.66
2022-11-23T04:28:05.970Z,976.59
2022-11-23T04:29:05.985Z,976.59
2022-11-23T04:30:05.980Z,976.59
2022-11-23T04:31:05.943Z,976.58
2022-11-23T04:32:05.959Z,976.59
2022-11-23T04:33:05.917Z,976.59
2022-11-23T04:34:05.919Z,976.57
2022-11-23T04:35:05.923Z,976.53
2022-11-23T04:36:05.896Z,976.55
2022-11-23T04:37:09.043Z,976.58
2022-11-23T04:38:05.886Z,976.58
2022-11-23T04:39:05.851Z,976.62
2022-11-23T04:40:05.850Z,976.58
2022-11-23T04:41:05.863Z,976.59
2022-11-23T04:42:05.832Z,976.62
2022-11-23T04:43:05.807Z,976.60
2022-11-23T04:44:05.822Z,976.61
2022-11-23T04:45:05.790Z,976.63
2022-11-23T04:46:05.803Z,976.64
2022-11-23T04:47:05.761Z,976.63
2022-11-23T04:48:05.767Z,976.57
2022-11-23T04:49:05.774Z,976.62
2022-11-23T04:50:05.745Z,976.66
2022-11-23T04:51:05.756Z,976.65
2022-11-23T04:52:05.721Z,976.68
2022-11-23T04:53:05.716Z,976.62
2022-11-23T04:54:05.692Z,976.61
2022-11-23T04:55:05.681Z,976.71
2022-11-23T04:56:05.695Z,976.67
2022-11-23T04:57:05.671Z,976.67
2022-11-23T04:58:05.651Z,976.70
2022-11-23T04:59:05.638Z,976.66
2022-11-23T05:00:05.636Z,976.64
2022-11-23T05:01:05.707Z,976.68
2022-11-23T05:02:05.644Z,976.64
2022-11-23T05:03:05.590Z,976.66
2022-11-23T05:04:05.590Z,976.68
2022-11-23T05:05:05.592Z,976.70
2022-11-23T05:06:05.555Z,976.67
2022-11-23T05:07:05.603Z,976.66
2022-11-23T05:08:05.570Z,976.65
2022-11-23T05:09:05.557Z,976.71
2022-11-23T05:10:05.510Z,976.72
2022-11-23T05:11:05.499Z,976.76
2022-11-23T05:12:05.599Z,976.63
2022-11-23T05:13:05.512Z,976.64
2022-11-23T05:14:05.460Z,976.72
2022-11-23T05:15:05.460Z,976.70
2022-11-23T05:16:05.443Z,976.71
2022-11-23T05:17:05.453Z,976.65
2022-11-23T05:18:05.487Z,976.66
2022-11-23T05:19:05.432Z,976.69
2022-11-23T05:20:05.418Z,976.69
2022-11-23T05:21:05.397Z,976.67
2022-11-23T05:22:05.389Z,976.70
2022-11-23T05:23:05.400Z,976.67
2022-11-23T05:24:05.394Z,976.68
2022-11-23T05:25:05.342Z,976.69
2022-11-23T05:26:05.340Z,976.64
2022-11-23T05:27:05.338Z,976.64
2022-11-23T05:28:30.128Z,976.58
2022-11-23T05:29:05.339Z,976.59
2022-11-23T05:30:05.328Z,976.60
2022-11-23T05:31:05.292Z,976.58
2022-11-23T05:32:05.309Z,976.61
2022-11-23T05:33:05.278Z,976.61
2022-11-23T05:34:05.288Z,976.58
2022-11-23T05:35:05.253Z,976.58
2022-11-23T05:36:05.282Z,976.59
2022-11-23T05:37:05.211Z,976.57
2022-11-23T05:38:05.224Z,976.58
2022-11-23T05:39:05.196Z,976.60
2022-11-23T05:40:05.194Z,976.64
2022-11-23T05:41:05.204Z,976.56
2022-11-23T05:42:05.209Z,976.55
2022-11-23T05:43:05.213Z,976.61
2022-11-23T05:44:05.131Z,976.58
2022-11-23T05:45:10.051Z,976.55
2022-11-23T05:46:05.119Z,976.50
2022-11-23T05:47:05.132Z,976.51
2022-11-23T05:48:05.101Z,976.51
2022-11-23T05:49:05.074Z,976.48
2022-11-23T05:50:05.074Z,976.40
2022-11-23T05:51:05.716Z,976.44
2022-11-23T05:52:05.087Z,976.52
2022-11-23T05:53:05.059Z,976.47
2022-11-23T05:54:05.119Z,976.47
2022-11-23T05:55:05.013Z,976.47
2022-11-23T05:56:05.013Z,976.46
2022-11-23T05:57:05.054Z,976.45
2022-11-23T05:58:04.986Z,976.46
2022-11-23T05:59:04.998Z,976.51
2022-11-23T06:00:05.490Z,976.45
2022-11-23T06:01:04.985Z,976.47
2022-11-23T06:02:04.956Z,976.45
2022-11-23T06:03:04.959Z,976.47
2022-11-23T06:04:04.997Z,976.49
2022-11-23T06:05:04.925Z,976.48
2022-11-23T06:06:04.904Z,976.40
2022-11-23T06:07:04.948Z,976.45
2022-11-23T06:08:04.918Z,976.45
2022-11-23T06:09:04.867Z,976.46
2022-11-23T06:10:04.860Z,976.46
2022-11-23T06:11:04.846Z,976.49
2022-11-23T06:12:04.863Z,976.52
2022-11-23T06:13:04.824Z,976.51
2022-11-23T06:14:05.211Z,976.57
2022-11-23T06:15:04.812Z,976.54
2022-11-23T06:16:04.788Z,976.58
2022-11-23T06:17:04.784Z,976.55
2022-11-23T06:18:04.790Z,976.56
2022-11-23T06:19:04.803Z,976.56
2022-11-23T06:20:04.762Z,976.54
2022-11-23T06:21:04.778Z,976.56
2022-11-23T06:22:04.730Z,976.55
2022-11-23T06:23:04.727Z,976.60
2022-11-23T06:24:04.705Z,976.51
2022-11-23T06:25:04.697Z,976.58
2022-11-23T06:26:04.713Z,976.51
2022-11-23T06:27:04.665Z,976.52
2022-11-23T06:28:04.663Z,976.54
2022-11-23T06:29:04.645Z,976.58
2022-11-23T06:30:04.650Z,976.55
2022-11-23T06:31:04.665Z,976.58
2022-11-23T06:32:04.657Z,976.59
2022-11-23T06:33:04.696Z,976.63
2022-11-23T06:34:04.633Z,976.67
2022-11-23T06:35:04.590Z,976.67
2022-11-23T06:36:04.577Z,976.65
2022-11-23T06:37:04.572Z,976.68
2022-11-23T06:38:04.606Z,976.69
2022-11-23T06:39:04.560Z,976.74
2022-11-23T06:40:04.547Z,976.70
2022-11-23T06:41:04.513Z,976.74
2022-11-23T06:42:23.819Z,976.72
2022-11-23T06:43:04.513Z,976.73
2022-11-23T06:44:04.483Z,976.73
2022-11-23T06:45:04.463Z,976.72
2022-11-23T06:46:04.467Z,976.71
2022-11-23T06:47:04.458Z,976.77
2022-11-23T06:48:04.477Z,976.71
2022-11-23T06:49:04.427Z,976.74
2022-11-23T06:50:04.450Z,976.82
2022-11-23T06:51:04.419Z,976.76
2022-11-23T06:52:04.398Z,976.79
2022-11-23T06:53:04.416Z,976.77
2022-11-23T06:54:04.385Z,976.83
2022-11-23T06:55:04.376Z,976.82
2022-11-23T06:56:04.374Z,976.78
2022-11-23T06:57:04.340Z,976.80
2022-11-23T06:58:04.339Z,976.80
2022-11-23T06:59:04.334Z,976.83
2022-11-23T07:00:04.330Z,976.80
2022-11-23T07:01:04.399Z,976.87
2022-11-23T07:02:04.302Z,976.81
2022-11-23T07:03:04.290Z,976.76
2022-11-23T07:04:04.284Z,976.80
2022-11-23T07:05:04.305Z,976.85
2022-11-23T07:06:04.261Z,976.94
2022-11-23T07:07:04.410Z,976.84
2022-11-23T07:08:04.230Z,976.85
2022-11-23T07:09:04.270Z,976.88
2022-11-23T07:10:07.314Z,976.89
2022-11-23T07:11:04.236Z,976.87
2022-11-23T07:12:04.194Z,976.88
2022-11-23T07:13:04.192Z,976.82
2022-11-23T07:14:04.215Z,976.86
2022-11-23T07:15:04.167Z,976.90
2022-11-23T07:16:04.232Z,976.90
2022-11-23T07:17:04.133Z,976.90
2022-11-23T07:18:04.146Z,976.92
2022-11-23T07:19:04.156Z,976.91
2022-11-23T07:20:04.111Z,976.91
2022-11-23T07:21:04.114Z,976.93
2022-11-23T07:22:04.203Z,976.93
2022-11-23T07:23:04.077Z,976.94
2022-11-23T07:24:04.078Z,976.92
2022-11-23T07:25:04.048Z,976.96
2022-11-23T07:26:04.031Z,976.91
2022-11-23T07:27:04.056Z,976.93
2022-11-23T07:28:04.006Z,976.93
2022-11-23T07:29:04.001Z,976.94
2022-11-23T07:30:04.026Z,976.99
2022-11-23T07:31:03.981Z,976.95
2022-11-23T07:32:04.139Z,976.95
2022-11-23T07:33:03.969Z,976.94
2022-11-23T07:34:03.941Z,976.98
2022-11-23T07:35:03.946Z,976.97
2022-11-23T07:36:03.967Z,976.92
2022-11-23T07:37:03.917Z,976.95
2022-11-23T07:38:03.925Z,977.00
2022-11-23T07:39:03.946Z,976.94
2022-11-23T07:40:04.168Z,976.95
2022-11-23T07:41:03.883Z,976.96
2022-11-23T07:42:31.155Z,976.94
2022-11-23T07:43:03.887Z,976.97
2022-11-23T07:44:03.889Z,976.98
2022-11-23T07:45:03.870Z,976.98
2022-11-23T07:46:03.853Z,976.89
2022-11-23T07:47:03.850Z,976.97
2022-11-23T07:48:03.820Z,976.95
2022-11-23T07:49:03.817Z,976.95
2022-11-23T07:50:03.778Z,976.97
2022-11-23T07:51:03.784Z,976.97
2022-11-23T07:52:03.769Z,976.96
2022-11-23T07:53:03.773Z,977.01
2022-11-23T07:54:03.728Z,976.99
2022-11-23T07:55:03.709Z,976.99
2022-11-23T07:56:03.706Z,977.00
2022-11-23T07:57:03.690Z,977.01
2022-11-23T07:58:03.692Z,977.04
2022-11-23T07:59:03.688Z,977.03
2022-11-23T08:00:03.688Z,977.01
2022-11-23T08:01:03.733Z,977.03
2022-11-23T08:02:03.700Z,977.03
2022-11-23T08:03:26.727Z,977.01
2022-11-23T08:04:03.645Z,977.05
2022-11-23T08:05:03.601Z,977.08
2022-11-23T08:06:03.602Z,977.10
2022-11-23T08:07:03.617Z,977.09
2022-11-23T08:08:04.193Z,977.05
2022-11-23T08:09:03.569Z,977.04
2022-11-23T08:10:03.586Z,977.05
2022-11-23T08:11:03.578Z,977.06
2022-11-23T08:12:03.544Z,977.09
2022-11-23T08:13:03.527Z,977.04
2022-11-23T08:14:03.522Z,977.04
2022-11-23T08:15:03.542Z,977.04
2022-11-23T08:16:03.524Z,977.10
2022-11-23T08:17:03.486Z,977.09
2022-11-23T08:18:03.482Z,977.05
2022-11-23T08:19:03.447Z,977.08
2022-11-23T08:20:03.463Z,977.08
2022-11-23T08:21:03.480Z,977.06
2022-11-23T08:22:03.438Z,977.06
2022-11-23T08:23:03.429Z,976.99
2022-11-23T08:24:03.422Z,977.03
2022-11-23T08:25:03.383Z,977.00
2022-11-23T08:26:04.870Z,977.08
2022-11-23T08:27:03.385Z,977.01
2022-11-23T08:28:03.363Z,976.98
2022-11-23T08:29:03.355Z,977.03
2022-11-23T08:30:03.340Z,977.03
2022-11-23T08:31:03.343Z,977.05
2022-11-23T08:32:03.332Z,977.01
2022-11-23T08:33:03.305Z,977.03
2022-11-23T08:34:03.910Z,977.08
2022-11-23T08:35:03.283Z,977.07
2022-11-23T08:36:03.285Z,977.09
2022-11-23T08:37:03.297Z,977.14
2022-11-23T08:38:03.266Z,977.11
2022-11-23T08:39:03.266Z,977.14
2022-11-23T08:40:03.251Z,977.07
2022-11-23T08:41:03.225Z,977.13
2022-11-23T08:42:03.232Z,977.11
2022-11-23T08:43:03.204Z,977.12
2022-11-23T08:44:03.209Z,977.10
2022-11-23T08:45:03.173Z,977.10
2022-11-23T08:46:06.654Z,977.09
2022-11-23T08:47:03.156Z,977.09
2022-11-23T08:48:03.172Z,977.07
2022-11-23T08:49:03.160Z,977.07
2022-11-23T08:50:03.138Z,977.03
2022-11-23T08:51:03.105Z,977.02
2022-11-23T08:52:03.097Z,977.04
2022-11-23T08:53:03.098Z,977.07
2022-11-23T08:54:03.102Z,977.04
2022-11-23T08:55:03.070Z,977.04
2022-11-23T08:56:03.073Z,977.00
2022-11-23T08:57:03.046Z,977.05
2022-11-23T08:58:03.034Z,976.99
2022-11-23T08:59:03.053Z,977.03
2022-11-23T09:00:03.028Z,977.00
2022-11-23T09:01:03.036Z,977.02
2022-11-23T09:02:02.998Z,977.03
2022-11-23T09:03:02.978Z,977.03
2022-11-23T09:04:02.963Z,977.04
2022-11-23T09:05:02.999Z,977.05
2022-11-23T09:06:03.096Z,977.08
2022-11-23T09:07:02.942Z,977.07
2022-11-23T09:08:02.939Z,977.04
2022-11-23T09:09:02.932Z,977.03
2022-11-23T09:10:02.904Z,977.05
2022-11-23T09:11:02.910Z,977.04
2022-11-23T09:12:02.908Z,977.05
2022-11-23T09:13:02.927Z,977.07
2022-11-23T09:14:02.870Z,977.03
2022-11-23T09:15:02.835Z,977.04
2022-11-23T09:16:02.855Z,977.05
2022-11-23T09:17:02.846Z,977.11
2022-11-23T09:18:02.875Z,977.08
2022-11-23T09:19:02.830Z,977.02
2022-11-23T09:20:02.796Z,977.04
2022-11-23T09:21:02.779Z,977.06
2022-11-23T09:22:02.775Z,977.05
2022-11-23T09:23:02.778Z,977.05
2022-11-23T09:24:02.774Z,977.06
2022-11-23T09:25:02.898Z,977.01
2022-11-23T09:26:02.725Z,977.02
2022-11-23T09:27:02.704Z,977.03
2022-11-23T09:28:02.751Z,977.01
2022-11-23T09:29:02.705Z,977.04
2022-11-23T09:30:02.725Z,977.02
2022-11-23T09:31:02.702Z,976.96
2022-11-23T09:32:02.667Z,977.02
2022-11-23T09:33:02.659Z,976.97
2022-11-23T09:34:02.654Z,976.98
2022-11-23T09:35:02.639Z,976.98
2022-11-23T09:36:02.634Z,976.96
2022-11-23T09:37:02.640Z,976.98
2022-11-23T09:38:02.591Z,976.94
2022-11-23T09:39:02.597Z,976.98
2022-11-23T09:40:02.583Z,976.95
2022-11-23T09:41:02.579Z,977.07
2022-11-23T09:42:02.589Z,976.97
2022-11-23T09:43:02.538Z,977.01
2022-11-23T09:44:02.541Z,976.95
2022-11-23T09:45:02.606Z,976.98
2022-11-23T09:46:02.601Z,976.94
2022-11-23T09:47:02.503Z,976.98
2022-11-23T09:48:02.485Z,976.94
2022-11-23T09:49:02.482Z,976.95
2022-11-23T09:50:02.525Z,976.97
2022-11-23T09:51:02.494Z,976.93
2022-11-23T09:52:02.456Z,976.99
2022-11-23T09:53:02.439Z,977.00
2022-11-23T09:54:02.429Z,976.96
2022-11-23T09:55:02.454Z,977.02
2022-11-23T09:56:02.398Z,976.93
2022-11-23T09:57:02.396Z,976.92
2022-11-23T09:58:02.434Z,976.99
2022-11-23T09:59:02.375Z,976.96
2022-11-23T10:00:02.379Z,976.94
2022-11-23T10:01:02.364Z,976.93
2022-11-23T10:02:02.413Z,976.87
2022-11-23T10:03:02.355Z,976.86
2022-11-23T10:04:02.319Z,976.93
2022-11-23T10:05:02.377Z,976.91
2022-11-23T10:06:02.296Z,976.92
2022-11-23T10:07:02.300Z,976.89
2022-11-23T10:08:02.285Z,976.87
2022-11-23T10:09:02.328Z,976.85
2022-11-23T10:10:02.303Z,976.88
2022-11-23T10:11:02.255Z,976.92
2022-11-23T10:12:03.120Z,976.90
2022-11-23T10:13:02.256Z,976.82
2022-11-23T10:14:02.206Z,976.88
2022-11-23T10:15:02.210Z,976.89
2022-11-23T10:16:02.215Z,976.86
2022-11-23T10:17:02.187Z,976.91
2022-11-23T10:18:02.177Z,976.87
2022-11-23T10:19:02.198Z,976.92
2022-11-23T10:20:02.148Z,976.90
2022-11-23T10:21:02.144Z,976.89
2022-11-23T10:22:02.177Z,976.87
2022-11-23T10:23:02.113Z,976.87
2022-11-23T10:24:02.128Z,976.84
2022-11-23T10:25:02.098Z,976.86
2022-11-23T10:26:02.057Z,976.80
2022-11-23T10:27:02.092Z,976.86
2022-11-23T10:28:02.086Z,976.85
2022-11-23T10:29:02.072Z,976.82
2022-11-23T10:30:02.029Z,976.80
2022-11-23T10:31:02.025Z,976.77
2022-11-23T10:32:02.028Z,976.78
2022-11-23T10:33:02.005Z,976.80
2022-11-23T10:34:01.996Z,976.78
2022-11-23T10:35:02.022Z,976.77
2022-11-23T10:36:01.951Z,976.78
2022-11-23T10:37:01.969Z,976.76
2022-11-23T10:38:02.014Z,976.76
2022-11-23T10:39:01.952Z,976.73
2022-11-23T10:40:01.951Z,976.76
2022-11-23T10:41:01.907Z,976.75
2022-11-23T10:42:01.922Z,976.77
2022-11-23T10:43:01.919Z,976.77
2022-11-23T10:44:01.907Z,976.78
2022-11-23T10:45:01.875Z,976.76
2022-11-23T10:46:01.888Z,976.73
2022-11-23T10:47:01.837Z,976.74
2022-11-23T10:48:01.843Z,976.73
2022-11-23T10:49:01.844Z,976.69
2022-11-23T10:50:01.866Z,976.71
2022-11-23T10:51:01.819Z,976.73
2022-11-23T10:52:01.847Z,976.68
2022-11-23T10:53:01.904Z,976.64
2022-11-23T10:54:05.191Z,976.68
2022-11-23T10:55:01.764Z,976.66
2022-11-23T10:56:01.777Z,976.72
2022-11-23T10:57:01.781Z,976.66
2022-11-23T10:58:01.744Z,976.66
2022-11-23T10:59:01.716Z,976.72
2022-11-23T11:00:01.740Z,976.76
2022-11-23T11:01:01.702Z,976.67
2022-11-23T11:02:01.802Z,976.71
2022-11-23T11:03:01.841Z,976.72
2022-11-23T11:04:01.670Z,976.68
2022-11-23T11:05:01.675Z,976.74
2022-11-23T11:06:10.423Z,976.73
2022-11-23T11:07:01.745Z,976.76
2022-11-23T11:08:01.608Z,976.72
2022-11-23T11:09:03.722Z,976.70
2022-11-23T11:10:01.632Z,976.70
2022-11-23T11:11:01.611Z,976.73
2022-11-23T11:12:01.597Z,976.70
2022-11-23T11:13:01.593Z,976.70
2022-11-23T11:14:01.554Z,976.72
2022-11-23T11:15:10.373Z,976.76
2022-11-23T11:16:01.587Z,976.72
2022-11-23T11:17:01.519Z,976.77
2022-11-23T11:18:01.497Z,976.79
2022-11-23T11:19:01.595Z,976.82
2022-11-23T11:20:01.515Z,976.89
2022-11-23T11:21:01.470Z,976.81
2022-11-23T11:22:01.707Z,976.74
2022-11-23T11:23:01.463Z,976.81
2022-11-23T11:24:01.455Z,976.84
2022-11-23T11:25:01.429Z,976.79
2022-11-23T11:26:01.412Z,976.81
2022-11-23T11:27:01.629Z,976.80
2022-11-23T11:28:01.392Z,976.79
2022-11-23T11:29:01.473Z,976.80
2022-11-23T11:30:01.531Z,976.79
2022-11-23T11:31:01.360Z,976.80
2022-11-23T11:32:01.348Z,976.77
2022-11-23T11:33:01.372Z,976.76
2022-11-23T11:34:01.376Z,976.83
2022-11-23T11:35:01.412Z,976.73
2022-11-23T11:36:01.324Z,976.77
2022-11-23T11:37:01.307Z,976.79
2022-11-23T11:38:01.341Z,976.74
2022-11-23T11:39:17.826Z,976.77
2022-11-23T11:40:01.301Z,976.82
2022-11-23T11:41:01.398Z,976.75
2022-11-23T11:42:01.243Z,976.79
2022-11-23T11:43:01.304Z,976.77
2022-11-23T11:44:01.211Z,976.74
2022-11-23T11:45:01.246Z,976.75
2022-11-23T11:46:31.098Z,976.77
2022-11-23T11:47:01.205Z,976.78
2022-11-23T11:48:01.178Z,976.78
2022-11-23T11:49:01.177Z,976.82
2022-11-23T11:50:01.787Z,976.78
2022-11-23T11:51:01.622Z,976.77
2022-11-23T11:52:01.154Z,976.79
2022-11-23T11:53:01.120Z,976.77
2022-11-23T11:54:01.121Z,976.77
2022-11-23T11:55:01.168Z,976.79
2022-11-23T11:56:01.107Z,976.78
2022-11-23T11:57:01.093Z,976.78
2022-11-23T11:58:01.101Z,976.80
2022-11-23T11:59:01.050Z,976.73
2022-11-23T12:00:01.057Z,976.72
2022-11-23T12:01:01.507Z,976.72
2022-11-23T12:02:01.010Z,976.74
2022-11-23T12:03:01.062Z,976.75
2022-11-23T12:04:01.034Z,976.71
2022-11-23T12:05:00.990Z,976.68
2022-11-23T12:06:00.998Z,976.71
2022-11-23T12:07:01.824Z,976.72
2022-11-23T12:08:01.024Z,976.74
2022-11-23T12:09:00.981Z,976.71
2022-11-23T12:10:00.976Z,976.69
2022-11-23T12:11:00.937Z,976.74
2022-11-23T12:12:00.923Z,976.72
2022-11-23T12:13:00.948Z,976.76
2022-11-23T12:14:00.895Z,976.75
2022-11-23T12:15:00.942Z,976.74
2022-11-23T12:16:00.865Z,976.77
2022-11-23T12:17:30.949Z,976.77
2022-11-23T12:18:00.868Z,976.80
2022-11-23T12:19:00.888Z,976.82
2022-11-23T12:20:00.830Z,976.82
2022-11-23T12:21:00.872Z,976.78
2022-11-23T12:22:00.920Z,976.82
2022-11-23T12:23:00.858Z,976.82
2022-11-23T12:24:01.130Z,976.82
2022-11-23T12:25:00.787Z,976.84
2022-11-23T12:26:02.172Z,976.84
2022-11-23T12:27:00.743Z,976.86
2022-11-23T12:28:00.739Z,976.85
2022-11-23T12:29:00.773Z,976.84
2022-11-23T12:30:00.718Z,976.82